sensor_id;sensor_type;location;lat;lon;timestamp;temperature;humidity
52107;DHT22;38105;52.968;5.974;2024-02-21T00:02:03;8.80;99.90
52107;DHT22;38105;52.968;5.974;2024-02-21T00:04:29;8.60;99.90
52107;DHT22;38105;52.968;5.974;2024-02-21T00:06:55;8.80;99.90
52107;DHT22;38105;52.968;5.974;2024-02-21T00:09:20;8.90;99.90
52107;DHT22;38105;52.968;5.974;2024-02-21T00:11:46;8.60;99.90
52107;DHT22;38105;52.968;5.974;2024-02-21T00:14:11;8.80;99.90
52107;DHT22;38105;52.968;5.974;2024-02-21T00:16:37;8.90;99.90
52107;DHT22;38105;52.968;5.974;2024-02-21T00:19:02;8.80;99.90
52107;DHT22;38105;52.968;5.974;2024-02-21T00:21:28;9.00;99.90
52107;DHT22;38105;52.968;5.974;2024-02-21T00:23:54;8.70;99.90
52107;DHT22;38105;52.968;5.974;2024-02-21T00:26:19;8.70;99.90
52107;DHT22;38105;52.968;5.974;2024-02-21T00:28:45;8.90;99.90
52107;DHT22;38105;52.968;5.974;2024-02-21T00:31:10;8.60;99.90
52107;DHT22;38105;52.968;5.974;2024-02-21T00:33:36;8.90;99.90
52107;DHT22;38105;52.968;5.974;2024-02-21T00:36:01;8.60;99.90
52107;DHT22;38105;52.968;5.974;2024-02-21T00:38:27;8.90;99.90
52107;DHT22;38105;52.968;5.974;2024-02-21T00:40:53;8.70;99.90
52107;DHT22;38105;52.968;5.974;2024-02-21T00:43:18;8.50;99.90
52107;DHT22;38105;52.968;5.974;2024-02-21T00:45:44;8.70;99.90
52107;DHT22;38105;52.968;5.974;2024-02-21T00:48:09;8.90;99.90
52107;DHT22;38105;52.968;5.974;2024-02-21T00:50:35;8.70;99.90
52107;DHT22;38105;52.968;5.974;2024-02-21T00:53:02;8.50;99.90
52107;DHT22;38105;52.968;5.974;2024-02-21T00:55:28;8.80;99.90
52107;DHT22;38105;52.968;5.974;2024-02-21T00:57:53;8.70;99.90
52107;DHT22;38105;52.968;5.974;2024-02-21T01:00:19;8.60;99.90
52107;DHT22;38105;52.968;5.974;2024-02-21T01:02:45;8.40;99.90
52107;DHT22;38105;52.968;5.974;2024-02-21T01:05:10;8.40;99.90
52107;DHT22;38105;52.968;5.974;2024-02-21T01:07:36;8.80;99.90
52107;DHT22;38105;52.968;5.974;2024-02-21T01:10:02;8.40;99.90
52107;DHT22;38105;52.968;5.974;2024-02-21T01:12:27;8.80;99.90
52107;DHT22;38105;52.968;5.974;2024-02-21T01:14:53;8.60;99.90
52107;DHT22;38105;52.968;5.974;2024-02-21T01:17:18;8.90;99.90
52107;DHT22;38105;52.968;5.974;2024-02-21T01:19:45;8.50;99.90
52107;DHT22;38105;52.968;5.974;2024-02-21T01:22:11;8.90;99.90
52107;DHT22;38105;52.968;5.974;2024-02-21T01:24:36;8.50;99.90
52107;DHT22;38105;52.968;5.974;2024-02-21T01:27:02;8.60;99.90
52107;DHT22;38105;52.968;5.974;2024-02-21T01:29:28;8.90;99.90
52107;DHT22;38105;52.968;5.974;2024-02-21T01:31:53;8.80;99.90
52107;DHT22;38105;52.968;5.974;2024-02-21T01:34:19;8.60;99.90
52107;DHT22;38105;52.968;5.974;2024-02-21T01:36:44;8.80;99.90
52107;DHT22;38105;52.968;5.974;2024-02-21T01:39:10;8.80;99.90
52107;DHT22;38105;52.968;5.974;2024-02-21T01:41:36;8.60;99.90
52107;DHT22;38105;52.968;5.974;2024-02-21T01:44:02;8.40;99.90
52107;DHT22;38105;52.968;5.974;2024-02-21T01:46:28;8.60;99.90
52107;DHT22;38105;52.968;5.974;2024-02-21T01:48:56;8.50;99.90
52107;DHT22;38105;52.968;5.974;2024-02-21T01:51:21;8.40;99.90
52107;DHT22;38105;52.968;5.974;2024-02-21T01:53:47;8.90;99.90
52107;DHT22;38105;52.968;5.974;2024-02-21T01:56:13;8.90;99.90
52107;DHT22;38105;52.968;5.974;2024-02-21T01:58:39;8.50;99.90
52107;DHT22;38105;52.968;5.974;2024-02-21T02:01:06;8.90;99.90
52107;DHT22;38105;52.968;5.974;2024-02-21T02:03:31;8.90;99.90
52107;DHT22;38105;52.968;5.974;2024-02-21T02:05:57;8.80;99.90
52107;DHT22;38105;52.968;5.974;2024-02-21T02:08:22;8.50;99.90
52107;DHT22;38105;52.968;5.974;2024-02-21T02:10:48;8.40;99.90
52107;DHT22;38105;52.968;5.974;2024-02-21T02:13:13;8.40;99.90
52107;DHT22;38105;52.968;5.974;2024-02-21T02:15:49;8.60;99.90
52107;DHT22;38105;52.968;5.974;2024-02-21T02:18:15;8.60;99.90
52107;DHT22;38105;52.968;5.974;2024-02-21T02:20:41;8.50;99.90
52107;DHT22;38105;52.968;5.974;2024-02-21T02:23:07;8.40;99.90
52107;DHT22;38105;52.968;5.974;2024-02-21T02:25:34;8.90;99.90
52107;DHT22;38105;52.968;5.974;2024-02-21T02:28:00;8.50;99.90
52107;DHT22;38105;52.968;5.974;2024-02-21T02:30:25;8.60;99.90
52107;DHT22;38105;52.968;5.974;2024-02-21T02:32:51;8.90;99.90
52107;DHT22;38105;52.968;5.974;2024-02-21T02:35:17;8.70;99.90
52107;DHT22;38105;52.968;5.974;2024-02-21T02:37:49;8.90;99.90
52107;DHT22;38105;52.968;5.974;2024-02-21T02:40:15;8.80;99.90
52107;DHT22;38105;52.968;5.974;2024-02-21T02:42:40;8.60;99.90
52107;DHT22;38105;52.968;5.974;2024-02-21T02:45:06;8.70;99.90
52107;DHT22;38105;52.968;5.974;2024-02-21T02:47:32;8.90;99.90
52107;DHT22;38105;52.968;5.974;2024-02-21T02:50:00;8.80;99.90
52107;DHT22;38105;52.968;5.974;2024-02-21T02:52:25;8.90;99.90
52107;DHT22;38105;52.968;5.974;2024-02-21T02:54:51;8.70;99.90
52107;DHT22;38105;52.968;5.974;2024-02-21T02:57:18;8.90;99.90
52107;DHT22;38105;52.968;5.974;2024-02-21T02:59:47;8.70;99.90
52107;DHT22;38105;52.968;5.974;2024-02-21T03:02:13;8.90;99.90
52107;DHT22;38105;52.968;5.974;2024-02-21T03:04:39;8.50;99.90
52107;DHT22;38105;52.968;5.974;2024-02-21T03:07:05;8.30;99.90
52107;DHT22;38105;52.968;5.974;2024-02-21T03:09:31;8.50;99.90
52107;DHT22;38105;52.968;5.974;2024-02-21T03:11:57;8.70;99.90
52107;DHT22;38105;52.968;5.974;2024-02-21T03:14:28;8.30;99.90
52107;DHT22;38105;52.968;5.974;2024-02-21T03:16:53;8.70;99.90
52107;DHT22;38105;52.968;5.974;2024-02-21T03:19:20;8.40;99.90
52107;DHT22;38105;52.968;5.974;2024-02-21T03:21:45;8.70;99.90
52107;DHT22;38105;52.968;5.974;2024-02-21T03:24:11;8.80;99.90
52107;DHT22;38105;52.968;5.974;2024-02-21T03:26:37;8.80;99.90
52107;DHT22;38105;52.968;5.974;2024-02-21T03:29:03;8.40;99.90
52107;DHT22;38105;52.968;5.974;2024-02-21T03:31:28;8.50;99.90
52107;DHT22;38105;52.968;5.974;2024-02-21T03:33:54;8.90;99.90
52107;DHT22;38105;52.968;5.974;2024-02-21T03:36:20;8.40;99.90
52107;DHT22;38105;52.968;5.974;2024-02-21T03:38:45;8.40;99.90
52107;DHT22;38105;52.968;5.974;2024-02-21T03:41:11;8.50;99.90
52107;DHT22;38105;52.968;5.974;2024-02-21T03:43:37;8.80;99.90
52107;DHT22;38105;52.968;5.974;2024-02-21T03:46:03;8.70;99.90
52107;DHT22;38105;52.968;5.974;2024-02-21T03:48:29;8.90;99.90
52107;DHT22;38105;52.968;5.974;2024-02-21T03:50:54;8.60;99.90
52107;DHT22;38105;52.968;5.974;2024-02-21T03:53:20;8.40;99.90
52107;DHT22;38105;52.968;5.974;2024-02-21T03:55:45;8.80;99.90
52107;DHT22;38105;52.968;5.974;2024-02-21T03:58:11;8.70;99.90
52107;DHT22;38105;52.968;5.974;2024-02-21T04:00:37;8.40;99.90
52107;DHT22;38105;52.968;5.974;2024-02-21T04:03:02;8.50;99.90
52107;DHT22;38105;52.968;5.974;2024-02-21T04:05:28;8.70;99.90
52107;DHT22;38105;52.968;5.974;2024-02-21T04:07:54;8.90;99.90
52107;DHT22;38105;52.968;5.974;2024-02-21T04:10:19;8.60;99.90
52107;DHT22;38105;52.968;5.974;2024-02-21T04:12:45;8.90;99.90
52107;DHT22;38105;52.968;5.974;2024-02-21T04:15:11;8.90;99.90
52107;DHT22;38105;52.968;5.974;2024-02-21T04:17:36;8.80;99.90
52107;DHT22;38105;52.968;5.974;2024-02-21T04:20:03;8.80;99.90
52107;DHT22;38105;52.968;5.974;2024-02-21T04:22:31;8.90;99.90
52107;DHT22;38105;52.968;5.974;2024-02-21T04:24:56;8.60;99.90
52107;DHT22;38105;52.968;5.974;2024-02-21T04:27:22;8.70;99.90
52107;DHT22;38105;52.968;5.974;2024-02-21T04:29:48;8.40;99.90
52107;DHT22;38105;52.968;5.974;2024-02-21T04:32:13;8.50;99.90
52107;DHT22;38105;52.968;5.974;2024-02-21T04:34:40;8.60;99.90
52107;DHT22;38105;52.968;5.974;2024-02-21T04:37:06;8.90;99.90
52107;DHT22;38105;52.968;5.974;2024-02-21T04:39:31;8.80;99.90
52107;DHT22;38105;52.968;5.974;2024-02-21T04:41:57;8.80;99.90
52107;DHT22;38105;52.968;5.974;2024-02-21T04:44:22;8.60;99.90
52107;DHT22;38105;52.968;5.974;2024-02-21T04:46:48;8.40;99.90
52107;DHT22;38105;52.968;5.974;2024-02-21T04:49:14;8.30;99.90
52107;DHT22;38105;52.968;5.974;2024-02-21T04:51:40;8.30;99.90
52107;DHT22;38105;52.968;5.974;2024-02-21T04:54:06;8.30;99.90
52107;DHT22;38105;52.968;5.974;2024-02-21T04:56:31;8.80;99.90
52107;DHT22;38105;52.968;5.974;2024-02-21T04:58:57;8.80;99.90
52107;DHT22;38105;52.968;5.974;2024-02-21T05:01:22;8.80;99.90
52107;DHT22;38105;52.968;5.974;2024-02-21T05:03:48;8.40;99.90
52107;DHT22;38105;52.968;5.974;2024-02-21T05:06:14;8.60;99.90
52107;DHT22;38105;52.968;5.974;2024-02-21T05:08:40;8.40;99.90
52107;DHT22;38105;52.968;5.974;2024-02-21T05:11:05;8.40;99.90
52107;DHT22;38105;52.968;5.974;2024-02-21T05:13:31;8.40;99.90
52107;DHT22;38105;52.968;5.974;2024-02-21T05:15:57;8.50;99.90
52107;DHT22;38105;52.968;5.974;2024-02-21T05:18:22;8.80;99.90
52107;DHT22;38105;52.968;5.974;2024-02-21T05:20:48;8.40;99.90
52107;DHT22;38105;52.968;5.974;2024-02-21T05:23:13;8.40;99.90
52107;DHT22;38105;52.968;5.974;2024-02-21T05:25:39;8.70;99.90
52107;DHT22;38105;52.968;5.974;2024-02-21T05:28:05;8.30;99.90
52107;DHT22;38105;52.968;5.974;2024-02-21T05:30:31;8.50;99.90
52107;DHT22;38105;52.968;5.974;2024-02-21T05:32:57;8.70;99.90
52107;DHT22;38105;52.968;5.974;2024-02-21T05:35:26;8.80;99.90
52107;DHT22;38105;52.968;5.974;2024-02-21T05:37:52;8.50;99.90
52107;DHT22;38105;52.968;5.974;2024-02-21T05:40:18;8.70;99.90
52107;DHT22;38105;52.968;5.974;2024-02-21T05:42:44;8.80;99.90
52107;DHT22;38105;52.968;5.974;2024-02-21T05:45:09;8.50;99.90
52107;DHT22;38105;52.968;5.974;2024-02-21T05:47:35;8.70;99.90
52107;DHT22;38105;52.968;5.974;2024-02-21T05:50:00;8.40;99.90
52107;DHT22;38105;52.968;5.974;2024-02-21T05:52:26;8.40;99.90
52107;DHT22;38105;52.968;5.974;2024-02-21T05:54:52;8.60;99.90
52107;DHT22;38105;52.968;5.974;2024-02-21T05:57:17;8.40;99.90
52107;DHT22;38105;52.968;5.974;2024-02-21T05:59:43;8.40;99.90
52107;DHT22;38105;52.968;5.974;2024-02-21T06:02:09;8.60;99.90
52107;DHT22;38105;52.968;5.974;2024-02-21T06:04:35;8.80;99.90
52107;DHT22;38105;52.968;5.974;2024-02-21T06:07:01;8.80;99.90
52107;DHT22;38105;52.968;5.974;2024-02-21T06:09:27;8.40;99.90
52107;DHT22;38105;52.968;5.974;2024-02-21T06:11:53;8.40;99.90
52107;DHT22;38105;52.968;5.974;2024-02-21T06:14:19;8.80;99.90
52107;DHT22;38105;52.968;5.974;2024-02-21T06:16:45;8.40;99.90
52107;DHT22;38105;52.968;5.974;2024-02-21T06:19:10;8.40;99.90
52107;DHT22;38105;52.968;5.974;2024-02-21T06:21:36;8.70;99.90
52107;DHT22;38105;52.968;5.974;2024-02-21T06:24:02;8.70;99.90
52107;DHT22;38105;52.968;5.974;2024-02-21T06:26:28;8.40;99.90
52107;DHT22;38105;52.968;5.974;2024-02-21T06:28:53;8.80;99.90
52107;DHT22;38105;52.968;5.974;2024-02-21T06:31:19;8.60;99.90
52107;DHT22;38105;52.968;5.974;2024-02-21T06:33:45;8.40;99.90
52107;DHT22;38105;52.968;5.974;2024-02-21T06:36:10;8.40;99.90
52107;DHT22;38105;52.968;5.974;2024-02-21T06:38:36;8.70;99.90
52107;DHT22;38105;52.968;5.974;2024-02-21T06:41:01;8.60;99.90
52107;DHT22;38105;52.968;5.974;2024-02-21T06:43:28;8.70;99.90
52107;DHT22;38105;52.968;5.974;2024-02-21T06:45:53;8.60;99.90
52107;DHT22;38105;52.968;5.974;2024-02-21T06:48:20;8.80;99.90
52107;DHT22;38105;52.968;5.974;2024-02-21T06:50:46;8.90;99.90
52107;DHT22;38105;52.968;5.974;2024-02-21T06:53:11;8.60;99.90
52107;DHT22;38105;52.968;5.974;2024-02-21T06:55:37;8.40;99.90
52107;DHT22;38105;52.968;5.974;2024-02-21T06:58:03;8.90;99.90
52107;DHT22;38105;52.968;5.974;2024-02-21T07:00:29;8.70;99.90
52107;DHT22;38105;52.968;5.974;2024-02-21T07:02:55;8.50;99.90
52107;DHT22;38105;52.968;5.974;2024-02-21T07:05:20;8.90;99.90
52107;DHT22;38105;52.968;5.974;2024-02-21T07:07:46;8.90;99.90
52107;DHT22;38105;52.968;5.974;2024-02-21T07:10:11;8.40;99.90
52107;DHT22;38105;52.968;5.974;2024-02-21T07:12:37;8.70;99.90
52107;DHT22;38105;52.968;5.974;2024-02-21T07:15:08;8.70;99.90
52107;DHT22;38105;52.968;5.974;2024-02-21T07:17:34;8.50;99.90
52107;DHT22;38105;52.968;5.974;2024-02-21T07:20:00;8.40;99.90
52107;DHT22;38105;52.968;5.974;2024-02-21T07:22:26;8.50;99.90
52107;DHT22;38105;52.968;5.974;2024-02-21T07:24:52;8.50;99.90
52107;DHT22;38105;52.968;5.974;2024-02-21T07:27:18;8.80;99.90
52107;DHT22;38105;52.968;5.974;2024-02-21T07:29:43;8.40;99.90
52107;DHT22;38105;52.968;5.974;2024-02-21T07:32:12;8.50;99.90
52107;DHT22;38105;52.968;5.974;2024-02-21T07:34:38;8.60;99.90
52107;DHT22;38105;52.968;5.974;2024-02-21T07:37:04;8.60;99.90
52107;DHT22;38105;52.968;5.974;2024-02-21T07:39:29;8.50;99.90
52107;DHT22;38105;52.968;5.974;2024-02-21T07:41:55;8.60;99.90
52107;DHT22;38105;52.968;5.974;2024-02-21T07:44:20;8.80;99.90
52107;DHT22;38105;52.968;5.974;2024-02-21T07:46:46;8.70;99.90
52107;DHT22;38105;52.968;5.974;2024-02-21T07:49:12;8.80;99.90
52107;DHT22;38105;52.968;5.974;2024-02-21T07:51:37;8.60;99.90
52107;DHT22;38105;52.968;5.974;2024-02-21T07:54:03;8.80;99.90
52107;DHT22;38105;52.968;5.974;2024-02-21T07:56:29;8.80;99.90
52107;DHT22;38105;52.968;5.974;2024-02-21T07:58:55;8.50;99.90
52107;DHT22;38105;52.968;5.974;2024-02-21T08:01:21;8.70;99.90
52107;DHT22;38105;52.968;5.974;2024-02-21T08:03:46;8.80;99.90
52107;DHT22;38105;52.968;5.974;2024-02-21T08:06:12;8.60;99.90
52107;DHT22;38105;52.968;5.974;2024-02-21T08:08:38;8.50;99.90
52107;DHT22;38105;52.968;5.974;2024-02-21T08:11:04;8.80;99.90
52107;DHT22;38105;52.968;5.974;2024-02-21T08:13:30;8.60;99.90
52107;DHT22;38105;52.968;5.974;2024-02-21T08:15:56;8.70;99.90
52107;DHT22;38105;52.968;5.974;2024-02-21T08:18:22;8.90;99.90
52107;DHT22;38105;52.968;5.974;2024-02-21T08:20:48;8.60;99.90
52107;DHT22;38105;52.968;5.974;2024-02-21T08:23:15;8.60;99.90
52107;DHT22;38105;52.968;5.974;2024-02-21T08:25:41;8.70;99.90
52107;DHT22;38105;52.968;5.974;2024-02-21T08:28:07;8.80;99.90
52107;DHT22;38105;52.968;5.974;2024-02-21T08:30:33;8.70;99.90
52107;DHT22;38105;52.968;5.974;2024-02-21T08:32:59;8.80;99.90
52107;DHT22;38105;52.968;5.974;2024-02-21T08:35:25;8.80;99.90
52107;DHT22;38105;52.968;5.974;2024-02-21T08:37:51;8.80;99.90
52107;DHT22;38105;52.968;5.974;2024-02-21T08:40:16;8.70;99.90
52107;DHT22;38105;52.968;5.974;2024-02-21T08:42:47;8.80;99.90
52107;DHT22;38105;52.968;5.974;2024-02-21T08:45:12;8.60;99.90
52107;DHT22;38105;52.968;5.974;2024-02-21T08:47:41;8.90;99.90
52107;DHT22;38105;52.968;5.974;2024-02-21T08:50:07;8.90;99.90
52107;DHT22;38105;52.968;5.974;2024-02-21T08:52:35;8.70;99.90
52107;DHT22;38105;52.968;5.974;2024-02-21T08:55:00;8.90;99.90
52107;DHT22;38105;52.968;5.974;2024-02-21T08:57:26;9.00;99.90
52107;DHT22;38105;52.968;5.974;2024-02-21T08:59:52;8.90;99.90
52107;DHT22;38105;52.968;5.974;2024-02-21T09:02:18;8.90;99.90
52107;DHT22;38105;52.968;5.974;2024-02-21T09:04:43;8.90;99.90
52107;DHT22;38105;52.968;5.974;2024-02-21T09:07:12;8.90;99.90
52107;DHT22;38105;52.968;5.974;2024-02-21T09:09:37;8.90;99.90
52107;DHT22;38105;52.968;5.974;2024-02-21T09:12:06;9.00;99.90
52107;DHT22;38105;52.968;5.974;2024-02-21T09:14:32;9.00;99.90
52107;DHT22;38105;52.968;5.974;2024-02-21T09:16:58;9.10;99.90
52107;DHT22;38105;52.968;5.974;2024-02-21T09:19:23;8.90;99.90
52107;DHT22;38105;52.968;5.974;2024-02-21T09:21:49;9.00;99.90
52107;DHT22;38105;52.968;5.974;2024-02-21T09:24:15;9.10;99.90
52107;DHT22;38105;52.968;5.974;2024-02-21T09:26:40;9.10;99.90
52107;DHT22;38105;52.968;5.974;2024-02-21T09:29:06;9.20;99.90
52107;DHT22;38105;52.968;5.974;2024-02-21T09:31:31;9.10;99.90
52107;DHT22;38105;52.968;5.974;2024-02-21T09:33:57;9.20;99.90
52107;DHT22;38105;52.968;5.974;2024-02-21T09:36:23;9.10;99.90
52107;DHT22;38105;52.968;5.974;2024-02-21T09:38:49;9.10;99.90
52107;DHT22;38105;52.968;5.974;2024-02-21T09:41:15;9.20;99.90
52107;DHT22;38105;52.968;5.974;2024-02-21T09:43:44;9.20;99.90
52107;DHT22;38105;52.968;5.974;2024-02-21T09:46:17;9.20;99.90
52107;DHT22;38105;52.968;5.974;2024-02-21T09:51:10;9.20;99.90
52107;DHT22;38105;52.968;5.974;2024-02-21T09:53:37;9.20;99.90
52107;DHT22;38105;52.968;5.974;2024-02-21T09:56:03;9.20;99.90
52107;DHT22;38105;52.968;5.974;2024-02-21T09:58:29;9.20;99.90
52107;DHT22;38105;52.968;5.974;2024-02-21T10:00:54;9.10;99.90
52107;DHT22;38105;52.968;5.974;2024-02-21T10:03:20;9.20;99.90
52107;DHT22;38105;52.968;5.974;2024-02-21T10:05:47;9.30;99.90
52107;DHT22;38105;52.968;5.974;2024-02-21T10:08:16;9.20;99.90
52107;DHT22;38105;52.968;5.974;2024-02-21T10:10:45;9.20;99.90
52107;DHT22;38105;52.968;5.974;2024-02-21T10:13:10;9.40;99.90
52107;DHT22;38105;52.968;5.974;2024-02-21T10:15:37;9.40;99.90
52107;DHT22;38105;52.968;5.974;2024-02-21T10:18:02;9.40;99.90
52107;DHT22;38105;52.968;5.974;2024-02-21T10:20:32;9.40;99.90
52107;DHT22;38105;52.968;5.974;2024-02-21T10:23:04;9.40;99.90
52107;DHT22;38105;52.968;5.974;2024-02-21T10:25:36;9.50;99.90
52107;DHT22;38105;52.968;5.974;2024-02-21T10:28:14;9.60;99.90
52107;DHT22;38105;52.968;5.974;2024-02-21T10:30:49;9.60;99.90
52107;DHT22;38105;52.968;5.974;2024-02-21T10:33:15;9.80;99.90
52107;DHT22;38105;52.968;5.974;2024-02-21T10:35:41;9.80;99.90
52107;DHT22;38105;52.968;5.974;2024-02-21T10:38:07;9.70;99.90
52107;DHT22;38105;52.968;5.974;2024-02-21T10:40:32;9.80;99.90
52107;DHT22;38105;52.968;5.974;2024-02-21T10:42:58;9.80;99.90
52107;DHT22;38105;52.968;5.974;2024-02-21T10:45:31;9.70;99.90
52107;DHT22;38105;52.968;5.974;2024-02-21T10:48:13;9.70;99.90
52107;DHT22;38105;52.968;5.974;2024-02-21T10:53:09;9.70;99.90
52107;DHT22;38105;52.968;5.974;2024-02-21T10:55:41;9.70;99.90
52107;DHT22;38105;52.968;5.974;2024-02-21T10:58:09;9.60;99.90
52107;DHT22;38105;52.968;5.974;2024-02-21T11:00:35;9.60;99.90
52107;DHT22;38105;52.968;5.974;2024-02-21T11:03:02;9.60;99.90
52107;DHT22;38105;52.968;5.974;2024-02-21T11:05:28;9.60;99.90
52107;DHT22;38105;52.968;5.974;2024-02-21T11:07:55;9.60;99.90
52107;DHT22;38105;52.968;5.974;2024-02-21T11:10:22;9.60;99.90
52107;DHT22;38105;52.968;5.974;2024-02-21T11:12:48;9.60;99.90
52107;DHT22;38105;52.968;5.974;2024-02-21T11:15:14;9.50;99.90
52107;DHT22;38105;52.968;5.974;2024-02-21T11:17:40;9.50;99.90
52107;DHT22;38105;52.968;5.974;2024-02-21T11:20:12;9.60;99.90
52107;DHT22;38105;52.968;5.974;2024-02-21T11:22:41;9.60;99.90
52107;DHT22;38105;52.968;5.974;2024-02-21T11:25:08;9.50;99.90
52107;DHT22;38105;52.968;5.974;2024-02-21T11:27:36;9.50;99.90
52107;DHT22;38105;52.968;5.974;2024-02-21T11:30:03;9.50;99.90
52107;DHT22;38105;52.968;5.974;2024-02-21T11:32:29;9.40;99.90
52107;DHT22;38105;52.968;5.974;2024-02-21T11:35:03;9.50;99.90
52107;DHT22;38105;52.968;5.974;2024-02-21T11:37:32;9.50;99.90
52107;DHT22;38105;52.968;5.974;2024-02-21T11:39:59;9.50;99.90
52107;DHT22;38105;52.968;5.974;2024-02-21T11:42:25;9.50;99.90
52107;DHT22;38105;52.968;5.974;2024-02-21T11:44:50;9.50;99.90
52107;DHT22;38105;52.968;5.974;2024-02-21T11:47:16;9.50;99.90
52107;DHT22;38105;52.968;5.974;2024-02-21T11:49:44;9.50;99.90
52107;DHT22;38105;52.968;5.974;2024-02-21T11:52:10;9.50;99.90
52107;DHT22;38105;52.968;5.974;2024-02-21T11:54:36;9.50;99.90
52107;DHT22;38105;52.968;5.974;2024-02-21T11:57:02;9.50;99.90
52107;DHT22;38105;52.968;5.974;2024-02-21T11:59:30;9.50;99.90
52107;DHT22;38105;52.968;5.974;2024-02-21T12:01:55;9.50;99.90
52107;DHT22;38105;52.968;5.974;2024-02-21T12:04:21;9.50;99.90
52107;DHT22;38105;52.968;5.974;2024-02-21T12:06:49;9.60;99.90
52107;DHT22;38105;52.968;5.974;2024-02-21T12:09:15;9.60;99.90
52107;DHT22;38105;52.968;5.974;2024-02-21T12:11:44;9.60;99.90
52107;DHT22;38105;52.968;5.974;2024-02-21T12:14:09;9.60;99.90
52107;DHT22;38105;52.968;5.974;2024-02-21T12:16:35;9.60;99.90
52107;DHT22;38105;52.968;5.974;2024-02-21T12:19:04;9.60;99.90
52107;DHT22;38105;52.968;5.974;2024-02-21T12:21:30;9.60;99.90
52107;DHT22;38105;52.968;5.974;2024-02-21T12:23:56;9.60;99.90
52107;DHT22;38105;52.968;5.974;2024-02-21T12:26:21;9.60;99.90
52107;DHT22;38105;52.968;5.974;2024-02-21T12:28:47;9.60;99.90
52107;DHT22;38105;52.968;5.974;2024-02-21T12:31:13;9.60;99.90
52107;DHT22;38105;52.968;5.974;2024-02-21T12:33:39;9.60;99.90
52107;DHT22;38105;52.968;5.974;2024-02-21T12:36:04;9.80;99.90
52107;DHT22;38105;52.968;5.974;2024-02-21T12:38:30;9.90;99.90
52107;DHT22;38105;52.968;5.974;2024-02-21T12:40:56;9.80;99.90
52107;DHT22;38105;52.968;5.974;2024-02-21T12:43:22;9.70;99.90
52107;DHT22;38105;52.968;5.974;2024-02-21T12:45:48;9.80;99.90
52107;DHT22;38105;52.968;5.974;2024-02-21T12:48:14;9.90;99.90
52107;DHT22;38105;52.968;5.974;2024-02-21T12:50:41;9.80;99.90
52107;DHT22;38105;52.968;5.974;2024-02-21T12:53:13;9.80;99.90
52107;DHT22;38105;52.968;5.974;2024-02-21T12:55:38;9.90;99.90
52107;DHT22;38105;52.968;5.974;2024-02-21T12:58:05;9.80;99.90
52107;DHT22;38105;52.968;5.974;2024-02-21T13:00:34;9.80;99.90
52107;DHT22;38105;52.968;5.974;2024-02-21T13:03:00;9.80;99.90
52107;DHT22;38105;52.968;5.974;2024-02-21T13:05:26;9.80;99.90
52107;DHT22;38105;52.968;5.974;2024-02-21T13:07:53;9.80;99.90
52107;DHT22;38105;52.968;5.974;2024-02-21T13:10:18;9.80;99.90
52107;DHT22;38105;52.968;5.974;2024-02-21T13:12:44;9.90;99.90
52107;DHT22;38105;52.968;5.974;2024-02-21T13:15:09;10.00;99.90
52107;DHT22;38105;52.968;5.974;2024-02-21T13:17:37;9.90;99.90
52107;DHT22;38105;52.968;5.974;2024-02-21T13:20:03;10.00;99.90
52107;DHT22;38105;52.968;5.974;2024-02-21T13:22:29;10.00;99.90
52107;DHT22;38105;52.968;5.974;2024-02-21T13:24:54;10.00;99.90
52107;DHT22;38105;52.968;5.974;2024-02-21T13:27:20;10.00;99.90
52107;DHT22;38105;52.968;5.974;2024-02-21T13:29:46;10.00;99.90
52107;DHT22;38105;52.968;5.974;2024-02-21T13:32:11;9.90;99.90
52107;DHT22;38105;52.968;5.974;2024-02-21T13:34:37;10.00;99.90
52107;DHT22;38105;52.968;5.974;2024-02-21T13:37:03;9.90;99.90
52107;DHT22;38105;52.968;5.974;2024-02-21T13:39:29;9.90;99.90
52107;DHT22;38105;52.968;5.974;2024-02-21T13:41:55;9.90;99.90
52107;DHT22;38105;52.968;5.974;2024-02-21T13:44:21;9.90;99.90
52107;DHT22;38105;52.968;5.974;2024-02-21T13:46:46;9.90;99.90
52107;DHT22;38105;52.968;5.974;2024-02-21T13:49:12;9.80;99.90
52107;DHT22;38105;52.968;5.974;2024-02-21T13:51:37;9.80;99.90
52107;DHT22;38105;52.968;5.974;2024-02-21T13:54:03;9.70;99.90
52107;DHT22;38105;52.968;5.974;2024-02-21T13:56:30;9.70;99.90
52107;DHT22;38105;52.968;5.974;2024-02-21T13:58:57;9.70;99.90
52107;DHT22;38105;52.968;5.974;2024-02-21T14:01:22;9.60;99.90
52107;DHT22;38105;52.968;5.974;2024-02-21T14:03:48;9.60;99.90
52107;DHT22;38105;52.968;5.974;2024-02-21T14:06:14;9.60;99.90
52107;DHT22;38105;52.968;5.974;2024-02-21T14:08:39;9.60;99.90
52107;DHT22;38105;52.968;5.974;2024-02-21T14:11:05;9.50;99.90
52107;DHT22;38105;52.968;5.974;2024-02-21T14:13:31;9.60;99.90
52107;DHT22;38105;52.968;5.974;2024-02-21T14:15:57;9.50;99.90
52107;DHT22;38105;52.968;5.974;2024-02-21T14:18:22;9.50;99.90
52107;DHT22;38105;52.968;5.974;2024-02-21T14:20:48;9.60;99.90
52107;DHT22;38105;52.968;5.974;2024-02-21T14:23:13;9.50;99.90
52107;DHT22;38105;52.968;5.974;2024-02-21T14:25:39;9.50;99.90
52107;DHT22;38105;52.968;5.974;2024-02-21T14:28:07;9.50;99.90
52107;DHT22;38105;52.968;5.974;2024-02-21T14:30:34;9.50;99.90
52107;DHT22;38105;52.968;5.974;2024-02-21T14:33:00;9.40;99.90
52107;DHT22;38105;52.968;5.974;2024-02-21T14:35:25;9.40;99.90
52107;DHT22;38105;52.968;5.974;2024-02-21T14:37:51;9.40;99.90
52107;DHT22;38105;52.968;5.974;2024-02-21T14:40:18;9.40;99.90
52107;DHT22;38105;52.968;5.974;2024-02-21T14:42:44;9.40;99.90
52107;DHT22;38105;52.968;5.974;2024-02-21T14:45:10;9.40;99.90
52107;DHT22;38105;52.968;5.974;2024-02-21T14:47:36;9.40;99.90
52107;DHT22;38105;52.968;5.974;2024-02-21T14:50:04;9.40;99.90
52107;DHT22;38105;52.968;5.974;2024-02-21T14:52:31;9.40;99.90
52107;DHT22;38105;52.968;5.974;2024-02-21T14:54:56;9.40;99.90
52107;DHT22;38105;52.968;5.974;2024-02-21T14:57:22;9.40;99.90
52107;DHT22;38105;52.968;5.974;2024-02-21T14:59:48;9.40;99.90
52107;DHT22;38105;52.968;5.974;2024-02-21T15:02:22;9.40;99.90
52107;DHT22;38105;52.968;5.974;2024-02-21T15:04:48;9.40;99.90
52107;DHT22;38105;52.968;5.974;2024-02-21T15:07:13;9.30;99.90
52107;DHT22;38105;52.968;5.974;2024-02-21T15:09:39;9.40;99.90
52107;DHT22;38105;52.968;5.974;2024-02-21T15:12:05;9.40;99.90
52107;DHT22;38105;52.968;5.974;2024-02-21T15:14:34;9.40;99.90
52107;DHT22;38105;52.968;5.974;2024-02-21T15:16:59;9.40;99.90
52107;DHT22;38105;52.968;5.974;2024-02-21T15:19:25;9.40;99.90
52107;DHT22;38105;52.968;5.974;2024-02-21T15:21:51;9.40;99.90
52107;DHT22;38105;52.968;5.974;2024-02-21T15:24:16;9.40;99.90
52107;DHT22;38105;52.968;5.974;2024-02-21T15:26:42;9.40;99.90
52107;DHT22;38105;52.968;5.974;2024-02-21T15:29:08;9.40;99.90
52107;DHT22;38105;52.968;5.974;2024-02-21T15:31:34;9.40;99.90
52107;DHT22;38105;52.968;5.974;2024-02-21T15:34:00;9.30;99.90
52107;DHT22;38105;52.968;5.974;2024-02-21T15:36:25;9.30;99.90
52107;DHT22;38105;52.968;5.974;2024-02-21T15:38:53;9.30;99.90
52107;DHT22;38105;52.968;5.974;2024-02-21T15:41:19;9.20;99.90
52107;DHT22;38105;52.968;5.974;2024-02-21T15:43:46;9.20;99.90